Terminal Aerodrome Forecast
Issued by NWS Albuquerque, NM

Home | Current Version | Previous Version | Text Only | Print | Product List | Glossary On
Versions: 1 2 3 4 5 6 7 8 9 10 11 12
000
FTUS45 KABQ 210528
TAFABQ
TAF
KABQ 210528Z 2106/2206 15007KT P6SM SKC
      TEMPO 2106/2109 19016KT
     FM211830 23012G20KT P6SM SKC
     FM212100 21018G30KT P6SM FEW090
     FM220200 18015KT P6SM FEW090=

USA.gov is the U.S. government's official web portal to all federal, state and local government web resources and services.